Terminal Aerodrome Forecast
Issued by NWS Greer, SC

Home | Current Version | Previous Version | Text Only | Print | Product List | Glossary On
Versions: 1 2 3 4 5 6 7 8 9 10 11 12 13 14 15 16 17 18 19 20 21 22 23 24 25 26 27 28 29
000
FTUS42 KGSP 161700
TAFGSP
TAF
KGSP 161723Z 1618/1718 31004KT P6SM VCTS BKN040CB
      TEMPO 1619/1623 VRB10G20KT 4SM TSRA BKN030CB
     FM162300 35003KT P6SM VCTS BKN050CB
     FM170300 00000KT 6SM BR SCT045 SCT250
      TEMPO 1710/1713 4SM BR BKN025
     FM171300 02005KT P6SM SCT030 SCT250=

USA.gov is the U.S. government's official web portal to all federal, state and local government web resources and services.